KASN

Talladega Municipal Airport

Talladega, Alabama, USA
METAR KASN 140715Z AUTO 10006KT 10SM RA BKN070 OVC100 12/10 A3002 RMK AO2 T01150095
Observed Flight Rules
Dec-14 @ 07:15 UTC (32 minutes ago) Visual Flight Rules
Wind Visibility Clouds Conditions
100° at 6 knots 10 miles
  • Broken at 7,000' AGL
  • Overcast at 10,000' AGL
  • Rain
Temperatures Readings
Current 12°C / 54°F
Dewpoint 10°C / 50°F
Humidity 88%
Altimeter 30.02" Hg
Pressure 1017 hPa
Elevation 162
METAR KASN 140715Z AUTO 10006KT 10SM RA BKN070 OVC100 12/10 A3002 RMK AO2 T01150095
Observed Flight Rules
Dec-14 @ 07:15 UTC
(32 minutes ago)
VFR
Wind Visibility
100° at 6 knots 10 miles
Clouds
  • Broken at 7,000' AGL
  • Overcast at 10,000' AGL
Conditions
  • Rain
Temperature Dewpoint
12°C / 54°F 10°C / 50°F
Humidity Altimeter Pressure
88% 30.02" Hg 1017 hPa